sensor_id;sensor_type;location;lat;lon;timestamp;P1;durP1;ratioP1;P2;durP2;ratioP2
49860;SDS011;35761;48.826;9.238;2022-12-11T00:00:14;30.20;;;17.30;;
49860;SDS011;35761;48.826;9.238;2022-12-11T00:02:44;31.08;;;18.02;;
49860;SDS011;35761;48.826;9.238;2022-12-11T00:05:12;32.00;;;19.77;;
49860;SDS011;35761;48.826;9.238;2022-12-11T00:07:41;27.98;;;17.40;;
49860;SDS011;35761;48.826;9.238;2022-12-11T00:10:11;32.88;;;18.20;;
49860;SDS011;35761;48.826;9.238;2022-12-11T00:12:40;30.42;;;18.80;;
49860;SDS011;35761;48.826;9.238;2022-12-11T00:15:09;34.45;;;19.73;;
49860;SDS011;35761;48.826;9.238;2022-12-11T00:17:39;30.48;;;18.23;;
49860;SDS011;35761;48.826;9.238;2022-12-11T00:20:08;35.90;;;18.88;;
49860;SDS011;35761;48.826;9.238;2022-12-11T00:22:37;30.38;;;17.95;;
49860;SDS011;35761;48.826;9.238;2022-12-11T00:25:07;29.35;;;18.90;;
49860;SDS011;35761;48.826;9.238;2022-12-11T00:27:38;34.10;;;18.83;;
49860;SDS011;35761;48.826;9.238;2022-12-11T00:30:07;33.78;;;18.63;;
49860;SDS011;35761;48.826;9.238;2022-12-11T00:32:36;32.28;;;18.50;;
49860;SDS011;35761;48.826;9.238;2022-12-11T00:35:05;35.67;;;18.98;;
49860;SDS011;35761;48.826;9.238;2022-12-11T00:37:35;30.10;;;17.33;;
49860;SDS011;35761;48.826;9.238;2022-12-11T00:40:05;31.90;;;18.10;;
49860;SDS011;35761;48.826;9.238;2022-12-11T00:42:34;28.67;;;17.48;;
49860;SDS011;35761;48.826;9.238;2022-12-11T00:45:05;27.80;;;18.33;;
49860;SDS011;35761;48.826;9.238;2022-12-11T00:47:35;30.92;;;18.17;;
49860;SDS011;35761;48.826;9.238;2022-12-11T00:50:05;31.40;;;18.10;;
49860;SDS011;35761;48.826;9.238;2022-12-11T00:52:34;33.92;;;18.88;;
49860;SDS011;35761;48.826;9.238;2022-12-11T00:55:03;30.25;;;19.15;;
49860;SDS011;35761;48.826;9.238;2022-12-11T00:57:34;28.75;;;17.65;;
49860;SDS011;35761;48.826;9.238;2022-12-11T01:00:03;29.83;;;18.33;;
49860;SDS011;35761;48.826;9.238;2022-12-11T01:02:34;31.80;;;19.60;;
49860;SDS011;35761;48.826;9.238;2022-12-11T01:05:03;32.50;;;17.92;;
49860;SDS011;35761;48.826;9.238;2022-12-11T01:07:33;30.20;;;18.42;;
49860;SDS011;35761;48.826;9.238;2022-12-11T01:10:02;33.65;;;18.88;;
49860;SDS011;35761;48.826;9.238;2022-12-11T01:12:50;31.42;;;18.58;;
49860;SDS011;35761;48.826;9.238;2022-12-11T01:15:22;34.35;;;19.05;;
49860;SDS011;35761;48.826;9.238;2022-12-11T01:17:52;38.08;;;19.45;;
49860;SDS011;35761;48.826;9.238;2022-12-11T01:20:22;34.47;;;19.23;;
49860;SDS011;35761;48.826;9.238;2022-12-11T01:22:51;32.83;;;19.60;;
49860;SDS011;35761;48.826;9.238;2022-12-11T01:25:22;31.42;;;18.10;;
49860;SDS011;35761;48.826;9.238;2022-12-11T01:27:52;30.38;;;17.92;;
49860;SDS011;35761;48.826;9.238;2022-12-11T01:30:23;33.45;;;19.17;;
49860;SDS011;35761;48.826;9.238;2022-12-11T01:32:53;33.75;;;19.55;;
49860;SDS011;35761;48.826;9.238;2022-12-11T01:35:21;32.88;;;18.40;;
49860;SDS011;35761;48.826;9.238;2022-12-11T01:37:50;29.08;;;18.50;;
49860;SDS011;35761;48.826;9.238;2022-12-11T01:40:20;31.30;;;17.42;;
49860;SDS011;35761;48.826;9.238;2022-12-11T01:42:49;29.67;;;17.40;;
49860;SDS011;35761;48.826;9.238;2022-12-11T01:45:27;34.75;;;18.27;;
49860;SDS011;35761;48.826;9.238;2022-12-11T01:48:03;28.02;;;17.95;;
49860;SDS011;35761;48.826;9.238;2022-12-11T01:50:35;32.00;;;19.20;;
49860;SDS011;35761;48.826;9.238;2022-12-11T01:53:08;33.35;;;18.85;;
49860;SDS011;35761;48.826;9.238;2022-12-11T01:55:39;33.17;;;18.77;;
49860;SDS011;35761;48.826;9.238;2022-12-11T01:58:08;30.42;;;18.45;;
49860;SDS011;35761;48.826;9.238;2022-12-11T02:00:39;31.30;;;18.35;;
49860;SDS011;35761;48.826;9.238;2022-12-11T02:03:08;31.30;;;19.02;;
49860;SDS011;35761;48.826;9.238;2022-12-11T02:05:37;31.33;;;19.17;;
49860;SDS011;35761;48.826;9.238;2022-12-11T02:08:05;28.77;;;18.00;;
49860;SDS011;35761;48.826;9.238;2022-12-11T02:10:42;28.75;;;17.15;;
49860;SDS011;35761;48.826;9.238;2022-12-11T02:13:17;27.02;;;16.42;;
49860;SDS011;35761;48.826;9.238;2022-12-11T02:15:50;31.50;;;18.58;;
49860;SDS011;35761;48.826;9.238;2022-12-11T02:18:24;28.45;;;17.75;;
49860;SDS011;35761;48.826;9.238;2022-12-11T02:20:59;30.00;;;16.85;;
49860;SDS011;35761;48.826;9.238;2022-12-11T02:23:39;26.10;;;16.08;;
49860;SDS011;35761;48.826;9.238;2022-12-11T02:26:24;27.45;;;17.08;;
49860;SDS011;35761;48.826;9.238;2022-12-11T02:29:03;31.42;;;16.77;;
49860;SDS011;35761;48.826;9.238;2022-12-11T02:31:35;25.50;;;16.48;;
49860;SDS011;35761;48.826;9.238;2022-12-11T02:34:07;29.63;;;17.33;;
49860;SDS011;35761;48.826;9.238;2022-12-11T02:36:37;28.95;;;16.27;;
49860;SDS011;35761;48.826;9.238;2022-12-11T02:39:09;30.60;;;17.73;;
49860;SDS011;35761;48.826;9.238;2022-12-11T02:41:39;27.80;;;17.08;;
49860;SDS011;35761;48.826;9.238;2022-12-11T02:44:13;27.00;;;17.20;;
49860;SDS011;35761;48.826;9.238;2022-12-11T02:46:43;28.00;;;16.80;;
49860;SDS011;35761;48.826;9.238;2022-12-11T02:49:12;29.75;;;17.98;;
49860;SDS011;35761;48.826;9.238;2022-12-11T02:51:41;27.13;;;16.92;;
49860;SDS011;35761;48.826;9.238;2022-12-11T02:54:12;26.58;;;16.55;;
49860;SDS011;35761;48.826;9.238;2022-12-11T02:56:43;26.55;;;16.60;;
49860;SDS011;35761;48.826;9.238;2022-12-11T02:59:17;29.55;;;16.10;;
49860;SDS011;35761;48.826;9.238;2022-12-11T03:01:48;24.67;;;15.38;;
49860;SDS011;35761;48.826;9.238;2022-12-11T03:04:17;25.52;;;15.38;;
49860;SDS011;35761;48.826;9.238;2022-12-11T03:06:51;23.70;;;15.57;;
49860;SDS011;35761;48.826;9.238;2022-12-11T03:09:21;26.25;;;16.08;;
49860;SDS011;35761;48.826;9.238;2022-12-11T03:11:50;29.13;;;17.90;;
49860;SDS011;35761;48.826;9.238;2022-12-11T03:14:20;26.90;;;16.00;;
49860;SDS011;35761;48.826;9.238;2022-12-11T03:16:51;23.65;;;14.85;;
49860;SDS011;35761;48.826;9.238;2022-12-11T03:19:26;26.35;;;15.95;;
49860;SDS011;35761;48.826;9.238;2022-12-11T03:21:58;24.40;;;15.77;;
49860;SDS011;35761;48.826;9.238;2022-12-11T03:24:33;28.95;;;17.02;;
49860;SDS011;35761;48.826;9.238;2022-12-11T03:27:08;28.42;;;17.20;;
49860;SDS011;35761;48.826;9.238;2022-12-11T03:29:43;28.33;;;17.83;;
49860;SDS011;35761;48.826;9.238;2022-12-11T03:32:16;30.63;;;18.52;;
49860;SDS011;35761;48.826;9.238;2022-12-11T03:34:49;28.55;;;17.67;;
49860;SDS011;35761;48.826;9.238;2022-12-11T03:37:24;36.50;;;20.10;;
49860;SDS011;35761;48.826;9.238;2022-12-11T03:39:55;29.90;;;18.33;;
49860;SDS011;35761;48.826;9.238;2022-12-11T03:42:27;28.65;;;16.75;;
49860;SDS011;35761;48.826;9.238;2022-12-11T03:44:58;31.35;;;18.40;;
49860;SDS011;35761;48.826;9.238;2022-12-11T03:47:27;26.95;;;16.70;;
49860;SDS011;35761;48.826;9.238;2022-12-11T03:49:57;24.17;;;14.07;;
49860;SDS011;35761;48.826;9.238;2022-12-11T03:52:27;28.23;;;17.13;;
49860;SDS011;35761;48.826;9.238;2022-12-11T03:54:59;27.20;;;15.50;;
49860;SDS011;35761;48.826;9.238;2022-12-11T03:57:33;28.08;;;16.65;;
49860;SDS011;35761;48.826;9.238;2022-12-11T04:00:05;25.30;;;14.27;;
49860;SDS011;35761;48.826;9.238;2022-12-11T04:02:38;24.85;;;15.48;;
49860;SDS011;35761;48.826;9.238;2022-12-11T04:05:07;25.23;;;16.05;;
49860;SDS011;35761;48.826;9.238;2022-12-11T04:07:37;25.95;;;15.55;;
49860;SDS011;35761;48.826;9.238;2022-12-11T04:10:06;26.30;;;16.73;;
49860;SDS011;35761;48.826;9.238;2022-12-11T04:12:35;23.73;;;14.85;;
49860;SDS011;35761;48.826;9.238;2022-12-11T04:15:06;24.58;;;15.23;;
49860;SDS011;35761;48.826;9.238;2022-12-11T04:17:35;25.15;;;16.25;;
49860;SDS011;35761;48.826;9.238;2022-12-11T04:20:21;23.70;;;15.10;;
49860;SDS011;35761;48.826;9.238;2022-12-11T04:23:10;24.92;;;15.80;;
49860;SDS011;35761;48.826;9.238;2022-12-11T04:26:02;24.20;;;14.85;;
49860;SDS011;35761;48.826;9.238;2022-12-11T04:28:31;25.58;;;15.68;;
49860;SDS011;35761;48.826;9.238;2022-12-11T04:31:02;26.58;;;16.05;;
49860;SDS011;35761;48.826;9.238;2022-12-11T04:33:31;26.73;;;15.20;;
49860;SDS011;35761;48.826;9.238;2022-12-11T04:36:00;28.67;;;14.73;;
49860;SDS011;35761;48.826;9.238;2022-12-11T04:38:29;21.85;;;13.40;;
49860;SDS011;35761;48.826;9.238;2022-12-11T04:40:58;25.45;;;14.27;;
49860;SDS011;35761;48.826;9.238;2022-12-11T04:43:27;22.77;;;13.98;;
49860;SDS011;35761;48.826;9.238;2022-12-11T04:45:59;25.50;;;15.75;;
49860;SDS011;35761;48.826;9.238;2022-12-11T04:48:31;22.88;;;13.52;;
49860;SDS011;35761;48.826;9.238;2022-12-11T04:51:00;31.50;;;14.57;;
49860;SDS011;35761;48.826;9.238;2022-12-11T04:53:29;26.85;;;13.85;;
49860;SDS011;35761;48.826;9.238;2022-12-11T04:55:58;21.52;;;13.05;;
49860;SDS011;35761;48.826;9.238;2022-12-11T04:58:26;21.40;;;13.20;;
49860;SDS011;35761;48.826;9.238;2022-12-11T05:00:55;22.45;;;14.10;;
49860;SDS011;35761;48.826;9.238;2022-12-11T05:03:25;26.50;;;15.18;;
49860;SDS011;35761;48.826;9.238;2022-12-11T05:05:54;27.08;;;15.63;;
49860;SDS011;35761;48.826;9.238;2022-12-11T05:08:23;24.48;;;15.07;;
49860;SDS011;35761;48.826;9.238;2022-12-11T05:10:54;28.23;;;14.43;;
49860;SDS011;35761;48.826;9.238;2022-12-11T05:13:23;27.00;;;14.65;;
49860;SDS011;35761;48.826;9.238;2022-12-11T05:15:53;24.25;;;13.15;;
49860;SDS011;35761;48.826;9.238;2022-12-11T05:18:22;19.88;;;11.15;;
49860;SDS011;35761;48.826;9.238;2022-12-11T05:20:56;23.52;;;13.20;;
49860;SDS011;35761;48.826;9.238;2022-12-11T05:23:25;18.42;;;11.57;;
49860;SDS011;35761;48.826;9.238;2022-12-11T05:25:55;19.98;;;11.73;;
49860;SDS011;35761;48.826;9.238;2022-12-11T05:28:25;21.42;;;12.57;;
49860;SDS011;35761;48.826;9.238;2022-12-11T05:30:55;19.30;;;11.18;;
49860;SDS011;35761;48.826;9.238;2022-12-11T05:33:24;22.83;;;12.45;;
49860;SDS011;35761;48.826;9.238;2022-12-11T05:35:53;22.90;;;13.15;;
49860;SDS011;35761;48.826;9.238;2022-12-11T05:38:23;20.23;;;13.32;;
49860;SDS011;35761;48.826;9.238;2022-12-11T05:40:55;18.40;;;12.32;;
49860;SDS011;35761;48.826;9.238;2022-12-11T05:43:25;22.02;;;13.15;;
49860;SDS011;35761;48.826;9.238;2022-12-11T05:45:55;23.00;;;14.07;;
49860;SDS011;35761;48.826;9.238;2022-12-11T05:48:27;30.48;;;15.75;;
49860;SDS011;35761;48.826;9.238;2022-12-11T05:50:57;23.50;;;14.45;;
49860;SDS011;35761;48.826;9.238;2022-12-11T05:53:27;27.48;;;15.60;;
49860;SDS011;35761;48.826;9.238;2022-12-11T05:55:59;26.00;;;16.23;;
49860;SDS011;35761;48.826;9.238;2022-12-11T05:58:29;26.90;;;16.35;;
49860;SDS011;35761;48.826;9.238;2022-12-11T06:00:58;27.63;;;17.00;;
49860;SDS011;35761;48.826;9.238;2022-12-11T06:03:27;32.05;;;18.00;;
49860;SDS011;35761;48.826;9.238;2022-12-11T06:05:59;28.60;;;17.25;;
49860;SDS011;35761;48.826;9.238;2022-12-11T06:08:28;30.15;;;17.70;;
49860;SDS011;35761;48.826;9.238;2022-12-11T06:10:57;29.55;;;18.30;;
49860;SDS011;35761;48.826;9.238;2022-12-11T06:13:26;29.80;;;17.95;;
49860;SDS011;35761;48.826;9.238;2022-12-11T06:15:54;29.45;;;18.45;;
49860;SDS011;35761;48.826;9.238;2022-12-11T06:18:28;29.73;;;18.70;;
49860;SDS011;35761;48.826;9.238;2022-12-11T06:20:58;33.15;;;18.77;;
49860;SDS011;35761;48.826;9.238;2022-12-11T06:23:27;32.33;;;18.80;;
49860;SDS011;35761;48.826;9.238;2022-12-11T06:25:55;32.78;;;19.75;;
49860;SDS011;35761;48.826;9.238;2022-12-11T06:28:24;33.15;;;19.90;;
49860;SDS011;35761;48.826;9.238;2022-12-11T06:30:53;34.97;;;20.42;;
49860;SDS011;35761;48.826;9.238;2022-12-11T06:33:21;31.55;;;18.52;;
49860;SDS011;35761;48.826;9.238;2022-12-11T06:35:50;29.95;;;19.30;;
49860;SDS011;35761;48.826;9.238;2022-12-11T06:38:21;32.10;;;20.27;;
49860;SDS011;35761;48.826;9.238;2022-12-11T06:40:53;36.88;;;20.38;;
49860;SDS011;35761;48.826;9.238;2022-12-11T06:43:22;33.25;;;20.08;;
49860;SDS011;35761;48.826;9.238;2022-12-11T06:45:51;34.10;;;19.98;;
49860;SDS011;35761;48.826;9.238;2022-12-11T06:50:54;32.58;;;19.15;;
49860;SDS011;35761;48.826;9.238;2022-12-11T06:53:24;37.47;;;20.13;;
49860;SDS011;35761;48.826;9.238;2022-12-11T06:55:53;38.70;;;21.50;;
49860;SDS011;35761;48.826;9.238;2022-12-11T06:58:22;35.75;;;22.10;;
49860;SDS011;35761;48.826;9.238;2022-12-11T07:00:50;40.15;;;23.00;;
49860;SDS011;35761;48.826;9.238;2022-12-11T07:03:19;38.40;;;21.85;;
49860;SDS011;35761;48.826;9.238;2022-12-11T07:05:48;40.00;;;20.75;;
49860;SDS011;35761;48.826;9.238;2022-12-11T07:08:17;37.03;;;20.92;;
49860;SDS011;35761;48.826;9.238;2022-12-11T07:10:47;35.67;;;21.85;;
49860;SDS011;35761;48.826;9.238;2022-12-11T07:13:15;34.38;;;20.88;;
49860;SDS011;35761;48.826;9.238;2022-12-11T07:15:44;37.22;;;21.25;;
49860;SDS011;35761;48.826;9.238;2022-12-11T07:18:13;37.28;;;21.45;;
49860;SDS011;35761;48.826;9.238;2022-12-11T07:20:42;39.42;;;21.80;;
49860;SDS011;35761;48.826;9.238;2022-12-11T07:23:11;38.60;;;21.38;;
49860;SDS011;35761;48.826;9.238;2022-12-11T07:25:40;33.67;;;20.70;;
49860;SDS011;35761;48.826;9.238;2022-12-11T07:28:10;37.28;;;21.85;;
49860;SDS011;35761;48.826;9.238;2022-12-11T07:30:42;37.15;;;21.67;;
49860;SDS011;35761;48.826;9.238;2022-12-11T07:33:10;35.92;;;21.20;;
49860;SDS011;35761;48.826;9.238;2022-12-11T07:35:39;39.92;;;21.60;;
49860;SDS011;35761;48.826;9.238;2022-12-11T07:38:08;36.78;;;21.98;;
49860;SDS011;35761;48.826;9.238;2022-12-11T07:40:37;54.03;;;30.67;;
49860;SDS011;35761;48.826;9.238;2022-12-11T07:43:05;40.45;;;24.13;;
49860;SDS011;35761;48.826;9.238;2022-12-11T07:45:35;36.67;;;21.52;;
49860;SDS011;35761;48.826;9.238;2022-12-11T07:48:05;33.83;;;20.38;;
49860;SDS011;35761;48.826;9.238;2022-12-11T07:50:33;36.33;;;21.75;;
49860;SDS011;35761;48.826;9.238;2022-12-11T07:53:05;35.10;;;21.45;;
49860;SDS011;35761;48.826;9.238;2022-12-11T07:55:34;35.22;;;18.98;;
49860;SDS011;35761;48.826;9.238;2022-12-11T07:58:02;32.20;;;18.50;;
49860;SDS011;35761;48.826;9.238;2022-12-11T08:00:31;31.35;;;18.63;;
49860;SDS011;35761;48.826;9.238;2022-12-11T08:03:01;33.50;;;19.45;;
49860;SDS011;35761;48.826;9.238;2022-12-11T08:05:30;33.35;;;20.52;;
49860;SDS011;35761;48.826;9.238;2022-12-11T08:07:59;36.28;;;19.33;;
49860;SDS011;35761;48.826;9.238;2022-12-11T08:10:27;32.38;;;19.45;;
49860;SDS011;35761;48.826;9.238;2022-12-11T08:12:56;31.02;;;18.33;;
49860;SDS011;35761;48.826;9.238;2022-12-11T08:15:25;34.75;;;18.77;;
49860;SDS011;35761;48.826;9.238;2022-12-11T08:17:53;31.85;;;19.00;;
49860;SDS011;35761;48.826;9.238;2022-12-11T08:20:23;32.58;;;18.83;;
49860;SDS011;35761;48.826;9.238;2022-12-11T08:22:52;35.28;;;18.45;;
49860;SDS011;35761;48.826;9.238;2022-12-11T08:25:24;30.08;;;17.65;;
49860;SDS011;35761;48.826;9.238;2022-12-11T08:27:53;33.15;;;17.95;;
49860;SDS011;35761;48.826;9.238;2022-12-11T08:30:22;29.90;;;17.48;;
49860;SDS011;35761;48.826;9.238;2022-12-11T08:32:50;29.02;;;16.50;;
49860;SDS011;35761;48.826;9.238;2022-12-11T08:35:19;27.00;;;16.67;;
49860;SDS011;35761;48.826;9.238;2022-12-11T08:37:49;27.67;;;15.98;;
49860;SDS011;35761;48.826;9.238;2022-12-11T08:40:18;30.30;;;17.50;;
49860;SDS011;35761;48.826;9.238;2022-12-11T08:42:47;28.10;;;16.15;;
49860;SDS011;35761;48.826;9.238;2022-12-11T08:45:17;26.70;;;15.95;;
49860;SDS011;35761;48.826;9.238;2022-12-11T08:47:46;25.67;;;15.70;;
49860;SDS011;35761;48.826;9.238;2022-12-11T08:50:15;30.48;;;17.15;;
49860;SDS011;35761;48.826;9.238;2022-12-11T08:52:43;27.00;;;15.75;;
49860;SDS011;35761;48.826;9.238;2022-12-11T08:55:13;27.95;;;15.85;;
49860;SDS011;35761;48.826;9.238;2022-12-11T08:57:42;27.40;;;15.60;;
49860;SDS011;35761;48.826;9.238;2022-12-11T09:00:11;28.60;;;15.50;;
49860;SDS011;35761;48.826;9.238;2022-12-11T09:02:41;24.83;;;14.80;;
49860;SDS011;35761;48.826;9.238;2022-12-11T09:05:10;26.38;;;14.85;;
49860;SDS011;35761;48.826;9.238;2022-12-11T09:07:39;32.22;;;16.45;;
49860;SDS011;35761;48.826;9.238;2022-12-11T09:10:08;29.85;;;17.65;;
49860;SDS011;35761;48.826;9.238;2022-12-11T09:12:39;28.38;;;17.23;;
49860;SDS011;35761;48.826;9.238;2022-12-11T09:15:08;30.73;;;17.70;;
49860;SDS011;35761;48.826;9.238;2022-12-11T09:17:38;26.75;;;17.05;;
49860;SDS011;35761;48.826;9.238;2022-12-11T09:20:07;28.83;;;16.95;;
49860;SDS011;35761;48.826;9.238;2022-12-11T09:22:36;30.75;;;18.05;;
49860;SDS011;35761;48.826;9.238;2022-12-11T09:25:05;31.33;;;18.27;;
49860;SDS011;35761;48.826;9.238;2022-12-11T09:27:35;32.80;;;19.00;;
49860;SDS011;35761;48.826;9.238;2022-12-11T09:30:06;32.50;;;18.35;;
49860;SDS011;35761;48.826;9.238;2022-12-11T09:32:35;33.80;;;18.77;;
49860;SDS011;35761;48.826;9.238;2022-12-11T09:35:05;33.78;;;19.27;;
49860;SDS011;35761;48.826;9.238;2022-12-11T09:37:36;36.30;;;20.95;;
49860;SDS011;35761;48.826;9.238;2022-12-11T09:40:05;35.72;;;20.85;;
49860;SDS011;35761;48.826;9.238;2022-12-11T09:42:40;30.73;;;17.55;;
49860;SDS011;35761;48.826;9.238;2022-12-11T09:45:15;29.17;;;17.25;;
49860;SDS011;35761;48.826;9.238;2022-12-11T09:47:45;26.92;;;16.13;;
49860;SDS011;35761;48.826;9.238;2022-12-11T09:50:17;24.95;;;14.80;;
49860;SDS011;35761;48.826;9.238;2022-12-11T09:52:52;26.35;;;14.70;;
49860;SDS011;35761;48.826;9.238;2022-12-11T09:55:30;24.42;;;14.80;;
49860;SDS011;35761;48.826;9.238;2022-12-11T09:58:09;28.20;;;16.10;;
49860;SDS011;35761;48.826;9.238;2022-12-11T10:00:45;27.88;;;15.85;;
49860;SDS011;35761;48.826;9.238;2022-12-11T10:03:21;28.08;;;16.38;;
49860;SDS011;35761;48.826;9.238;2022-12-11T10:05:58;31.50;;;16.88;;
49860;SDS011;35761;48.826;9.238;2022-12-11T10:08:31;35.20;;;18.67;;
49860;SDS011;35761;48.826;9.238;2022-12-11T10:11:04;32.05;;;19.63;;
49860;SDS011;35761;48.826;9.238;2022-12-11T10:13:48;29.48;;;18.80;;
49860;SDS011;35761;48.826;9.238;2022-12-11T10:16:28;29.60;;;17.60;;
49860;SDS011;35761;48.826;9.238;2022-12-11T10:19:01;31.15;;;17.58;;
49860;SDS011;35761;48.826;9.238;2022-12-11T10:21:32;31.75;;;18.38;;
49860;SDS011;35761;48.826;9.238;2022-12-11T10:24:09;28.63;;;16.73;;
49860;SDS011;35761;48.826;9.238;2022-12-11T10:27:07;31.98;;;17.90;;
49860;SDS011;35761;48.826;9.238;2022-12-11T10:29:41;28.85;;;17.05;;
49860;SDS011;35761;48.826;9.238;2022-12-11T10:32:15;27.80;;;16.40;;
49860;SDS011;35761;48.826;9.238;2022-12-11T10:34:50;26.70;;;15.98;;
49860;SDS011;35761;48.826;9.238;2022-12-11T10:37:22;37.72;;;21.70;;
49860;SDS011;35761;48.826;9.238;2022-12-11T10:39:51;30.48;;;15.98;;
49860;SDS011;35761;48.826;9.238;2022-12-11T10:42:19;32.45;;;15.07;;
49860;SDS011;35761;48.826;9.238;2022-12-11T10:44:56;27.10;;;16.55;;
49860;SDS011;35761;48.826;9.238;2022-12-11T10:47:27;25.33;;;15.60;;
49860;SDS011;35761;48.826;9.238;2022-12-11T10:49:57;35.97;;;19.23;;
49860;SDS011;35761;48.826;9.238;2022-12-11T10:52:28;31.48;;;18.00;;
49860;SDS011;35761;48.826;9.238;2022-12-11T10:55:00;28.30;;;15.55;;
49860;SDS011;35761;48.826;9.238;2022-12-11T10:57:30;28.88;;;15.18;;
49860;SDS011;35761;48.826;9.238;2022-12-11T11:00:02;24.15;;;14.55;;
49860;SDS011;35761;48.826;9.238;2022-12-11T11:02:35;26.08;;;14.55;;
49860;SDS011;35761;48.826;9.238;2022-12-11T11:05:12;25.20;;;15.48;;
49860;SDS011;35761;48.826;9.238;2022-12-11T11:07:42;23.63;;;14.93;;
49860;SDS011;35761;48.826;9.238;2022-12-11T11:10:15;24.20;;;14.45;;
49860;SDS011;35761;48.826;9.238;2022-12-11T11:12:45;27.00;;;15.10;;
49860;SDS011;35761;48.826;9.238;2022-12-11T11:15:17;25.02;;;14.90;;
49860;SDS011;35761;48.826;9.238;2022-12-11T11:17:51;26.67;;;14.40;;
49860;SDS011;35761;48.826;9.238;2022-12-11T11:20:22;62.42;;;43.95;;
49860;SDS011;35761;48.826;9.238;2022-12-11T11:22:52;31.48;;;20.02;;
49860;SDS011;35761;48.826;9.238;2022-12-11T11:25:23;28.73;;;16.25;;
49860;SDS011;35761;48.826;9.238;2022-12-11T11:27:54;27.67;;;17.00;;
49860;SDS011;35761;48.826;9.238;2022-12-11T11:30:24;31.02;;;16.95;;
49860;SDS011;35761;48.826;9.238;2022-12-11T11:32:55;25.08;;;16.38;;
49860;SDS011;35761;48.826;9.238;2022-12-11T11:35:27;25.85;;;15.32;;
49860;SDS011;35761;48.826;9.238;2022-12-11T11:37:58;27.80;;;16.55;;
49860;SDS011;35761;48.826;9.238;2022-12-11T11:40:30;26.27;;;15.13;;
49860;SDS011;35761;48.826;9.238;2022-12-11T11:43:03;29.20;;;16.10;;
49860;SDS011;35761;48.826;9.238;2022-12-11T11:45:36;32.20;;;17.00;;
49860;SDS011;35761;48.826;9.238;2022-12-11T11:48:12;25.70;;;15.02;;
49860;SDS011;35761;48.826;9.238;2022-12-11T11:50:47;28.67;;;16.30;;
49860;SDS011;35761;48.826;9.238;2022-12-11T11:53:18;25.48;;;14.65;;
49860;SDS011;35761;48.826;9.238;2022-12-11T11:55:53;27.08;;;15.93;;
49860;SDS011;35761;48.826;9.238;2022-12-11T11:58:31;25.75;;;15.45;;
49860;SDS011;35761;48.826;9.238;2022-12-11T12:01:08;24.00;;;14.63;;
49860;SDS011;35761;48.826;9.238;2022-12-11T12:03:41;28.05;;;16.88;;
49860;SDS011;35761;48.826;9.238;2022-12-11T12:06:11;29.13;;;14.73;;
49860;SDS011;35761;48.826;9.238;2022-12-11T12:08:57;26.25;;;15.68;;
49860;SDS011;35761;48.826;9.238;2022-12-11T12:11:32;25.10;;;15.13;;
49860;SDS011;35761;48.826;9.238;2022-12-11T12:14:07;25.83;;;14.68;;
49860;SDS011;35761;48.826;9.238;2022-12-11T12:17:04;29.52;;;15.98;;
49860;SDS011;35761;48.826;9.238;2022-12-11T12:19:48;26.17;;;15.10;;
49860;SDS011;35761;48.826;9.238;2022-12-11T12:22:25;27.42;;;14.75;;
49860;SDS011;35761;48.826;9.238;2022-12-11T12:25:09;27.55;;;14.98;;
49860;SDS011;35761;48.826;9.238;2022-12-11T12:27:44;29.48;;;15.88;;
49860;SDS011;35761;48.826;9.238;2022-12-11T12:30:26;37.05;;;19.70;;
49860;SDS011;35761;48.826;9.238;2022-12-11T12:33:05;29.52;;;18.63;;
49860;SDS011;35761;48.826;9.238;2022-12-11T12:35:43;27.30;;;16.23;;
49860;SDS011;35761;48.826;9.238;2022-12-11T12:38:18;27.40;;;16.55;;
49860;SDS011;35761;48.826;9.238;2022-12-11T12:40:52;26.25;;;15.50;;
49860;SDS011;35761;48.826;9.238;2022-12-11T12:46:20;26.60;;;15.90;;
49860;SDS011;35761;48.826;9.238;2022-12-11T12:48:54;31.08;;;17.80;;
49860;SDS011;35761;48.826;9.238;2022-12-11T12:51:25;29.02;;;17.75;;
49860;SDS011;35761;48.826;9.238;2022-12-11T12:53:55;30.02;;;16.90;;
49860;SDS011;35761;48.826;9.238;2022-12-11T12:56:28;30.90;;;15.93;;
49860;SDS011;35761;48.826;9.238;2022-12-11T12:58:58;28.67;;;17.92;;
49860;SDS011;35761;48.826;9.238;2022-12-11T13:01:27;30.50;;;18.05;;
49860;SDS011;35761;48.826;9.238;2022-12-11T13:03:57;30.83;;;17.10;;
49860;SDS011;35761;48.826;9.238;2022-12-11T13:06:30;29.48;;;17.02;;
49860;SDS011;35761;48.826;9.238;2022-12-11T13:09:14;29.38;;;16.83;;
49860;SDS011;35761;48.826;9.238;2022-12-11T13:11:45;27.98;;;17.35;;
49860;SDS011;35761;48.826;9.238;2022-12-11T13:14:23;29.30;;;17.15;;
49860;SDS011;35761;48.826;9.238;2022-12-11T13:17:04;31.35;;;16.30;;
49860;SDS011;35761;48.826;9.238;2022-12-11T13:19:47;28.80;;;16.35;;
49860;SDS011;35761;48.826;9.238;2022-12-11T13:22:21;29.92;;;17.65;;
49860;SDS011;35761;48.826;9.238;2022-12-11T13:24:56;25.52;;;15.15;;
49860;SDS011;35761;48.826;9.238;2022-12-11T13:27:35;29.92;;;15.70;;
49860;SDS011;35761;48.826;9.238;2022-12-11T13:30:06;32.35;;;16.55;;
49860;SDS011;35761;48.826;9.238;2022-12-11T13:32:48;32.58;;;17.35;;
49860;SDS011;35761;48.826;9.238;2022-12-11T13:35:26;31.75;;;18.17;;
49860;SDS011;35761;48.826;9.238;2022-12-11T13:37:56;33.67;;;17.70;;
49860;SDS011;35761;48.826;9.238;2022-12-11T13:40:35;32.45;;;18.10;;
49860;SDS011;35761;48.826;9.238;2022-12-11T13:43:07;34.03;;;17.95;;
49860;SDS011;35761;48.826;9.238;2022-12-11T13:45:45;31.67;;;18.17;;
49860;SDS011;35761;48.826;9.238;2022-12-11T13:48:20;31.90;;;17.88;;
49860;SDS011;35761;48.826;9.238;2022-12-11T13:50:51;28.63;;;17.77;;
49860;SDS011;35761;48.826;9.238;2022-12-11T13:53:22;32.40;;;17.73;;
49860;SDS011;35761;48.826;9.238;2022-12-11T13:55:55;30.75;;;17.58;;
49860;SDS011;35761;48.826;9.238;2022-12-11T13:58:24;33.92;;;18.85;;
49860;SDS011;35761;48.826;9.238;2022-12-11T14:01:00;35.00;;;19.85;;
49860;SDS011;35761;48.826;9.238;2022-12-11T14:03:31;36.22;;;20.38;;
49860;SDS011;35761;48.826;9.238;2022-12-11T14:06:00;33.72;;;18.60;;
49860;SDS011;35761;48.826;9.238;2022-12-11T14:08:32;35.35;;;19.95;;
49860;SDS011;35761;48.826;9.238;2022-12-11T14:11:03;36.20;;;20.80;;
49860;SDS011;35761;48.826;9.238;2022-12-11T14:13:33;37.70;;;20.00;;
49860;SDS011;35761;48.826;9.238;2022-12-11T14:16:02;41.42;;;23.55;;
49860;SDS011;35761;48.826;9.238;2022-12-11T14:18:32;33.78;;;20.23;;
49860;SDS011;35761;48.826;9.238;2022-12-11T14:21:03;36.13;;;20.40;;
49860;SDS011;35761;48.826;9.238;2022-12-11T14:23:34;38.83;;;20.95;;
49860;SDS011;35761;48.826;9.238;2022-12-11T14:26:10;42.60;;;23.92;;
49860;SDS011;35761;48.826;9.238;2022-12-11T14:28:43;35.78;;;19.70;;
49860;SDS011;35761;48.826;9.238;2022-12-11T14:31:12;36.50;;;20.15;;
49860;SDS011;35761;48.826;9.238;2022-12-11T14:33:44;36.78;;;21.70;;
49860;SDS011;35761;48.826;9.238;2022-12-11T14:36:17;41.25;;;22.33;;
49860;SDS011;35761;48.826;9.238;2022-12-11T14:38:48;41.90;;;22.10;;
49860;SDS011;35761;48.826;9.238;2022-12-11T14:41:20;37.05;;;19.98;;
49860;SDS011;35761;48.826;9.238;2022-12-11T14:43:53;38.33;;;20.73;;
49860;SDS011;35761;48.826;9.238;2022-12-11T14:46:25;37.55;;;20.73;;
49860;SDS011;35761;48.826;9.238;2022-12-11T14:49:00;37.88;;;20.30;;
49860;SDS011;35761;48.826;9.238;2022-12-11T14:51:33;39.42;;;21.35;;